Time;durP1;ratioP1;P1;durP2;ratioP2;P2;SDS_P1;SDS_P2;PMS_P1;PMS_P2;Temp;Humidity;BMP_temperature;BMP_pressure;BME280_temperature;BME280_humidity;BME280_pressure;Samples;Min_cycle;Max_cycle;Signal;HPM_P1;HPM_P2
2021/04/19 00:01:41;;;;;;;22.83;18.30;;;;;;;;;;5084998;28;20754;-75
2021/04/19 00:04:06;;;;;;;25.97;19.37;;;;;;;;;;5099669;28;20811;-75
2021/04/19 00:06:32;;;;;;;26.40;19.60;;;;;;;;;;5106065;28;20444;-75
2021/04/19 00:08:58;;;;;;;27.70;20.20;;;;;;;;;;5087967;28;20422;-74
2021/04/19 00:11:24;;;;;;;25.13;19.70;;;;;;;;;;5089061;28;20424;-74
2021/04/19 00:13:50;;;;;;;28.27;20.17;;;;;;;;;;5088828;28;20484;-75
2021/04/19 00:16:16;;;;;;;26.90;21.07;;;;;;;;;;5104858;28;20411;-74
2021/04/19 00:18:42;;;;;;;31.40;20.83;;;;;;;;;;5100699;28;20880;-74
2021/04/19 00:21:08;;;;;;;29.63;20.73;;;;;;;;;;5109556;28;20408;-74
2021/04/19 00:23:34;;;;;;;29.00;21.30;;;;;;;;;;5091784;28;20179;-74
2021/04/19 00:26:00;;;;;;;29.30;21.83;;;;;;;;;;5092576;28;21020;-76
2021/04/19 00:28:26;;;;;;;30.33;22.37;;;;;;;;;;5086387;28;20780;-75
2021/04/19 00:30:52;;;;;;;32.42;22.30;;;;;;;;;;5093108;28;20790;-75
2021/04/19 00:33:18;;;;;;;32.83;24.50;;;;;;;;;;5109203;28;20212;-75
2021/04/19 00:35:44;;;;;;;31.40;22.63;;;;;;;;;;5098481;28;20396;-76
2021/04/19 00:38:10;;;;;;;30.43;22.63;;;;;;;;;;5089312;28;20694;-75
2021/04/19 00:40:37;;;;;;;33.43;24.10;;;;;;;;;;5093105;28;20399;-75
2021/04/19 00:43:03;;;;;;;36.38;23.50;;;;;;;;;;5109199;28;20744;-75
2021/04/19 00:45:29;;;;;;;31.27;23.10;;;;;;;;;;5107291;28;20189;-74
2021/04/19 00:47:55;;;;;;;38.20;24.73;;;;;;;;;;5109213;28;20203;-75
2021/04/19 00:50:24;;;;;;;32.80;24.43;;;;;;;;;;5105437;28;20539;-75
2021/04/19 00:52:50;;;;;;;36.83;25.77;;;;;;;;;;5099657;28;20549;-75
2021/04/19 00:55:16;;;;;;;36.97;26.02;;;;;;;;;;5106032;28;20229;-75
2021/04/19 00:57:42;;;;;;;34.53;25.13;;;;;;;;;;5088761;28;20263;-75
2021/04/19 01:00:14;;;;;;;30.00;23.50;;;;;;;;;;5089734;28;20172;-76
2021/04/19 01:02:40;;;;;;;34.15;24.80;;;;;;;;;;5097645;28;20179;-75
2021/04/19 01:05:10;;;;;;;35.42;24.98;;;;;;;;;;5098034;28;20273;-75
2021/04/19 01:07:36;;;;;;;36.90;24.98;;;;;;;;;;5098036;28;20252;-74
2021/04/19 01:10:03;;;;;;;38.20;26.57;;;;;;;;;;5091972;28;20187;-74
2021/04/19 01:12:29;;;;;;;39.03;24.45;;;;;;;;;;5107876;28;20499;-75
2021/04/19 01:14:56;;;;;;;36.83;25.23;;;;;;;;;;5098343;28;20641;-75
2021/04/19 01:17:22;;;;;;;33.70;24.85;;;;;;;;;;5095940;28;20447;-75
2021/04/19 01:19:48;;;;;;;33.70;24.67;;;;;;;;;;5096183;28;20719;-75
2021/04/19 01:22:14;;;;;;;35.03;24.80;;;;;;;;;;5109841;28;20379;-74
2021/04/19 01:24:40;;;;;;;32.75;24.52;;;;;;;;;;5114561;28;20395;-74
2021/04/19 01:27:07;;;;;;;31.60;23.93;;;;;;;;;;5105468;28;20213;-76
2021/04/19 01:29:33;;;;;;;37.90;23.67;;;;;;;;;;5095978;28;20424;-75
2021/04/19 01:31:59;;;;;;;33.67;24.27;;;;;;;;;;5095717;28;20179;-74
2021/04/19 01:34:25;;;;;;;36.47;24.57;;;;;;;;;;5095382;28;20636;-75
2021/04/19 01:36:51;;;;;;;33.03;23.53;;;;;;;;;;5093855;28;20524;-75
2021/04/19 01:39:18;;;;;;;33.85;25.38;;;;;;;;;;5082329;28;20389;-75
2021/04/19 01:41:45;;;;;;;38.72;25.70;;;;;;;;;;5094619;28;20489;-75
2021/04/19 01:44:11;;;;;;;33.45;25.80;;;;;;;;;;5115520;28;20198;-74
2021/04/19 01:46:37;;;;;;;35.08;26.30;;;;;;;;;;5076776;28;20200;-75
2021/04/19 01:49:11;;;;;;;38.65;27.42;;;;;;;;;;5095359;28;20183;-74
2021/04/19 01:51:37;;;;;;;40.40;26.75;;;;;;;;;;5095449;28;20254;-76
2021/04/19 01:54:03;;;;;;;42.50;27.52;;;;;;;;;;5094678;28;20665;-75
2021/04/19 01:56:29;;;;;;;42.30;28.27;;;;;;;;;;5095341;28;20203;-74
2021/04/19 01:58:56;;;;;;;38.13;28.35;;;;;;;;;;5102181;28;20456;-74
2021/04/19 02:01:22;;;;;;;35.65;26.25;;;;;;;;;;5115722;28;20178;-75
2021/04/19 02:03:48;;;;;;;41.05;28.33;;;;;;;;;;5113698;28;20222;-75
2021/04/19 02:06:29;;;;;;;40.63;29.17;;;;;;;;;;5115425;28;20226;-75
2021/04/19 02:08:58;;;;;;;36.70;28.90;;;;;;;;;;5115465;28;20170;-73
2021/04/19 02:11:43;;;;;;;40.15;28.00;;;;;;;;;;5108174;28;20640;-74
2021/04/19 02:14:15;;;;;;;38.53;27.70;;;;;;;;;;5086203;28;20731;-74
2021/04/19 02:17:07;;;;;;;37.80;26.83;;;;;;;;;;5083977;28;20199;-74
2021/04/19 02:19:38;;;;;;;40.55;28.30;;;;;;;;;;5108284;27;20539;-74
2021/04/19 02:22:15;;;;;;;38.90;26.50;;;;;;;;;;5095053;28;20171;-74
2021/04/19 02:24:44;;;;;;;38.00;26.85;;;;;;;;;;5095534;28;20179;-75
2021/04/19 02:27:12;;;;;;;38.03;27.33;;;;;;;;;;5093190;28;20541;-75
2021/04/19 02:29:40;;;;;;;37.35;26.42;;;;;;;;;;5094498;28;20232;-75
2021/04/19 02:32:17;;;;;;;36.55;26.33;;;;;;;;;;5093414;28;20629;-73
2021/04/19 02:34:44;;;;;;;35.97;25.60;;;;;;;;;;5092702;28;20186;-74
2021/04/19 02:37:10;;;;;;;35.80;25.40;;;;;;;;;;5096994;28;20188;-75
2021/04/19 02:39:46;;;;;;;41.22;26.25;;;;;;;;;;5106259;28;20193;-74
2021/04/19 02:42:12;;;;;;;35.50;25.08;;;;;;;;;;5114719;28;20639;-75
2021/04/19 02:44:39;;;;;;;31.77;24.73;;;;;;;;;;5114319;27;20181;-73
2021/04/19 02:47:06;;;;;;;38.03;25.90;;;;;;;;;;5114526;27;20230;-75
2021/04/19 02:49:33;;;;;;;38.42;26.40;;;;;;;;;;5114390;28;20182;-75
2021/04/19 02:52:01;;;;;;;36.05;26.52;;;;;;;;;;5114322;28;20185;-75
2021/04/19 02:54:27;;;;;;;36.17;26.33;;;;;;;;;;5109759;28;20174;-76
2021/04/19 02:56:54;;;;;;;41.50;27.90;;;;;;;;;;5094147;28;20249;-73
2021/04/19 02:59:23;;;;;;;36.70;25.55;;;;;;;;;;5092804;28;20557;-76
2021/04/19 03:01:50;;;;;;;37.58;26.83;;;;;;;;;;5099882;28;20181;-75
2021/04/19 03:04:21;;;;;;;36.95;26.35;;;;;;;;;;5113850;28;20190;-75
2021/04/19 03:06:50;;;;;;;38.38;26.98;;;;;;;;;;5107252;28;20234;-76
2021/04/19 03:09:17;;;;;;;35.47;25.80;;;;;;;;;;5093789;28;20644;-75
2021/04/19 03:11:52;;;;;;;38.25;26.85;;;;;;;;;;5092411;28;20222;-73
2021/04/19 03:14:21;;;;;;;42.85;25.98;;;;;;;;;;5094735;28;20210;-74
2021/04/19 03:16:55;;;;;;;35.08;26.63;;;;;;;;;;5093754;28;20252;-74
2021/04/19 03:19:24;;;;;;;38.08;26.88;;;;;;;;;;5092673;28;20650;-74
2021/04/19 03:21:50;;;;;;;36.50;27.42;;;;;;;;;;5093514;28;20176;-74
2021/04/19 03:24:16;;;;;;;38.67;29.00;;;;;;;;;;5093541;28;20179;-74
2021/04/19 03:26:43;;;;;;;37.78;27.30;;;;;;;;;;5089680;28;20199;-75
2021/04/19 03:29:10;;;;;;;42.83;28.77;;;;;;;;;;5092291;28;20635;-74
2021/04/19 03:31:39;;;;;;;39.25;28.88;;;;;;;;;;5093461;28;20636;-75
2021/04/19 03:34:09;;;;;;;38.58;27.83;;;;;;;;;;5092616;28;20211;-75
2021/04/19 03:36:36;;;;;;;27.05;17.25;;;;;;;;;;5092320;28;20195;-75
2021/04/19 03:39:03;;;;;;;33.97;24.85;;;;;;;;;;5096626;28;20202;-75
2021/04/19 03:41:30;;;;;;;28.70;22.05;;;;;;;;;;5105933;28;20254;-75
2021/04/19 03:44:00;;;;;;;32.60;24.92;;;;;;;;;;5093017;28;20185;-75
2021/04/19 03:46:28;;;;;;;36.00;25.88;;;;;;;;;;5091869;28;20256;-75
2021/04/19 03:49:14;;;;;;;33.60;25.17;;;;;;;;;;5102026;28;20179;-75
2021/04/19 03:51:41;;;;;;;41.15;24.92;;;;;;;;;;5108406;28;20198;-75
2021/04/19 03:54:08;;;;;;;34.72;25.60;;;;;;;;;;5113282;28;20247;-75
2021/04/19 03:56:35;;;;;;;33.90;24.73;;;;;;;;;;5096643;28;20192;-75
2021/04/19 03:59:03;;;;;;;33.97;25.98;;;;;;;;;;5107399;28;20172;-75
2021/04/19 04:01:30;;;;;;;36.70;25.70;;;;;;;;;;5092916;28;20493;-75
2021/04/19 04:03:57;;;;;;;40.35;28.95;;;;;;;;;;5092523;28;20525;-75
2021/04/19 04:06:24;;;;;;;36.35;27.38;;;;;;;;;;5106554;28;20294;-75
2021/04/19 04:08:50;;;;;;;32.65;24.58;;;;;;;;;;5102948;28;20183;-75
2021/04/19 04:11:16;;;;;;;33.80;24.52;;;;;;;;;;5099473;28;20523;-75
2021/04/19 04:13:42;;;;;;;36.65;26.70;;;;;;;;;;5104254;28;20205;-76
2021/04/19 04:16:08;;;;;;;38.50;24.88;;;;;;;;;;5104912;28;20171;-75
2021/04/19 04:18:34;;;;;;;34.20;24.60;;;;;;;;;;5092842;28;20186;-76
2021/04/19 04:21:01;;;;;;;42.10;26.60;;;;;;;;;;5093063;28;20524;-75
2021/04/19 04:23:27;;;;;;;32.30;24.00;;;;;;;;;;5090856;28;20746;-75
2021/04/19 04:25:53;;;;;;;32.50;24.52;;;;;;;;;;5099041;28;20264;-75
2021/04/19 04:28:19;;;;;;;36.10;25.45;;;;;;;;;;5086968;28;20183;-75
2021/04/19 04:30:45;;;;;;;34.58;26.10;;;;;;;;;;5095178;28;20183;-75
2021/04/19 04:33:11;;;;;;;32.60;24.42;;;;;;;;;;5102369;28;20560;-75
2021/04/19 04:35:37;;;;;;;31.03;22.13;;;;;;;;;;5103768;28;20187;-75
2021/04/19 04:38:04;;;;;;;32.22;22.60;;;;;;;;;;5092142;28;20540;-75
2021/04/19 04:40:30;;;;;;;29.27;22.58;;;;;;;;;;5092712;28;20263;-75
2021/04/19 04:43:14;;;;;;;34.15;23.95;;;;;;;;;;5102668;28;20179;-76
2021/04/19 04:45:41;;;;;;;35.92;24.58;;;;;;;;;;5113143;28;20183;-76
2021/04/19 04:48:13;;;;;;;37.83;25.88;;;;;;;;;;5094488;28;20222;-76
2021/04/19 04:50:45;;;;;;;34.42;23.67;;;;;;;;;;5096399;28;20172;-76
2021/04/19 04:53:24;;;;;;;36.05;25.05;;;;;;;;;;5094269;28;20204;-74
2021/04/19 04:55:50;;;;;;;44.28;26.70;;;;;;;;;;5102152;28;20171;-74
2021/04/19 04:58:17;;;;;;;33.72;26.20;;;;;;;;;;5113149;28;20273;-75
2021/04/19 05:00:43;;;;;;;36.63;27.20;;;;;;;;;;5112694;28;20171;-75
2021/04/19 05:03:10;;;;;;;33.05;25.40;;;;;;;;;;5095462;28;20215;-75
2021/04/19 05:05:37;;;;;;;36.58;26.77;;;;;;;;;;5105864;28;20182;-76
2021/04/19 05:08:03;;;;;;;36.50;25.13;;;;;;;;;;5098066;28;20203;-76
2021/04/19 05:10:29;;;;;;;43.17;29.27;;;;;;;;;;5096438;28;20179;-75
2021/04/19 05:12:55;;;;;;;41.60;27.92;;;;;;;;;;5095269;28;20199;-76
2021/04/19 05:15:21;;;;;;;40.58;28.33;;;;;;;;;;5106252;28;20269;-75
2021/04/19 05:17:47;;;;;;;41.13;26.47;;;;;;;;;;5099227;28;20282;-76
2021/04/19 05:20:14;;;;;;;36.25;27.42;;;;;;;;;;5098927;28;20770;-76
2021/04/19 05:22:41;;;;;;;36.40;25.05;;;;;;;;;;5095930;28;20194;-74
2021/04/19 05:25:07;;;;;;;34.40;25.30;;;;;;;;;;5095280;28;20177;-75
2021/04/19 05:27:33;;;;;;;34.83;25.05;;;;;;;;;;5095544;28;20203;-75
2021/04/19 05:30:00;;;;;;;36.15;25.00;;;;;;;;;;5095845;28;20183;-77
2021/04/19 05:32:29;;;;;;;36.80;26.20;;;;;;;;;;5098568;28;20210;-75
2021/04/19 05:34:56;;;;;;;35.92;26.35;;;;;;;;;;5116011;28;20179;-74
2021/04/19 05:37:22;;;;;;;36.20;26.80;;;;;;;;;;5097416;28;20191;-75
2021/04/19 05:39:48;;;;;;;42.88;28.38;;;;;;;;;;5095615;28;20190;-75
2021/04/19 05:42:15;;;;;;;37.78;27.60;;;;;;;;;;5094963;28;20203;-76
2021/04/19 05:44:42;;;;;;;37.03;26.85;;;;;;;;;;5095155;28;20187;-75
2021/04/19 05:47:08;;;;;;;47.97;28.83;;;;;;;;;;5094781;28;20195;-74
2021/04/19 05:49:34;;;;;;;39.00;27.23;;;;;;;;;;5094641;28;20562;-74
2021/04/19 05:52:01;;;;;;;39.03;27.98;;;;;;;;;;5104567;28;20179;-75
2021/04/19 05:54:28;;;;;;;37.85;25.70;;;;;;;;;;5094573;28;20188;-76
2021/04/19 05:57:03;;;;;;;35.03;27.02;;;;;;;;;;5111592;28;20273;-75
2021/04/19 05:59:41;;;;;;;35.22;25.80;;;;;;;;;;5115049;28;20211;-76
2021/04/19 06:02:09;;;;;;;35.70;25.02;;;;;;;;;;5106284;28;20163;-74
2021/04/19 06:04:53;;;;;;;34.50;24.48;;;;;;;;;;5109084;28;20206;-75
2021/04/19 06:07:33;;;;;;;35.55;26.40;;;;;;;;;;5104700;28;20195;-74
2021/04/19 06:10:14;;;;;;;32.88;24.58;;;;;;;;;;5103668;28;20640;-75
2021/04/19 06:12:44;;;;;;;29.58;22.83;;;;;;;;;;5095867;28;20199;-76
2021/04/19 06:15:13;;;;;;;33.80;23.10;;;;;;;;;;5094786;28;20168;-76
2021/04/19 06:17:39;;;;;;;36.20;24.55;;;;;;;;;;5094184;28;20194;-76
2021/04/19 06:20:08;;;;;;;34.00;24.67;;;;;;;;;;5098748;28;20175;-75
2021/04/19 06:22:34;;;;;;;33.80;25.10;;;;;;;;;;5110313;28;20178;-76
2021/04/19 06:25:00;;;;;;;35.38;26.23;;;;;;;;;;5113632;28;20636;-76
2021/04/19 06:27:26;;;;;;;43.55;31.55;;;;;;;;;;5099734;28;20564;-76
2021/04/19 06:29:53;;;;;;;36.97;28.27;;;;;;;;;;5094420;28;20179;-75
2021/04/19 06:32:22;;;;;;;37.53;26.00;;;;;;;;;;5094385;28;20222;-76
2021/04/19 06:34:48;;;;;;;36.03;27.05;;;;;;;;;;5095082;28;20647;-75
2021/04/19 06:37:14;;;;;;;39.63;28.13;;;;;;;;;;5096018;28;20210;-75
2021/04/19 06:39:40;;;;;;;40.63;27.40;;;;;;;;;;5094319;28;20176;-76
2021/04/19 06:42:07;;;;;;;37.30;26.87;;;;;;;;;;5086238;28;20190;-75
2021/04/19 06:44:33;;;;;;;37.05;26.20;;;;;;;;;;5085918;28;20411;-75
2021/04/19 06:47:00;;;;;;;38.72;26.77;;;;;;;;;;5087129;28;20199;-75
2021/04/19 06:49:26;;;;;;;35.40;26.02;;;;;;;;;;5105961;28;20181;-75
2021/04/19 06:51:55;;;;;;;37.25;25.98;;;;;;;;;;5090011;28;20187;-74
2021/04/19 06:54:21;;;;;;;34.50;26.83;;;;;;;;;;5098944;28;20203;-74
2021/04/19 06:56:47;;;;;;;31.48;25.48;;;;;;;;;;5090146;28;20211;-75
2021/04/19 06:59:19;;;;;;;35.78;27.48;;;;;;;;;;5091787;28;20202;-77
2021/04/19 07:01:45;;;;;;;31.83;25.00;;;;;;;;;;5086867;28;20187;-76
2021/04/19 07:04:15;;;;;;;32.10;24.63;;;;;;;;;;5104684;28;20243;-74
2021/04/19 07:06:41;;;;;;;34.10;25.75;;;;;;;;;;5090125;28;20207;-75
2021/04/19 07:09:16;;;;;;;30.95;24.65;;;;;;;;;;5088819;28;20477;-74
2021/04/19 07:11:44;;;;;;;31.52;23.38;;;;;;;;;;5099415;28;20261;-75
2021/04/19 07:14:10;;;;;;;34.42;24.67;;;;;;;;;;5094575;28;20606;-75
2021/04/19 07:16:36;;;;;;;37.22;25.15;;;;;;;;;;5089573;28;20206;-76
2021/04/19 07:19:02;;;;;;;32.97;25.30;;;;;;;;;;5089530;28;20183;-74
2021/04/19 07:21:28;;;;;;;36.45;25.45;;;;;;;;;;5094094;28;20179;-76
2021/04/19 07:23:55;;;;;;;42.20;29.70;;;;;;;;;;5105269;28;20544;-75
2021/04/19 07:26:21;;;;;;;32.33;24.42;;;;;;;;;;5089175;28;20199;-75
2021/04/19 07:28:48;;;;;;;34.65;24.10;;;;;;;;;;5088814;28;20583;-76
2021/04/19 07:31:14;;;;;;;32.50;25.70;;;;;;;;;;5089393;28;20232;-76
2021/04/19 07:33:40;;;;;;;33.93;25.30;;;;;;;;;;5103280;28;20731;-75
2021/04/19 07:36:19;;;;;;;29.35;21.35;;;;;;;;;;5098901;28;20444;-75
2021/04/19 07:38:45;;;;;;;27.98;22.25;;;;;;;;;;5099431;28;20191;-76
2021/04/19 07:41:11;;;;;;;28.33;21.08;;;;;;;;;;5099780;28;20178;-76
2021/04/19 07:43:38;;;;;;;24.67;18.25;;;;;;;;;;5093005;28;20549;-76
2021/04/19 07:46:08;;;;;;;28.08;21.77;;;;;;;;;;5089308;28;20716;-74
2021/04/19 07:48:38;;;;;;;26.17;20.23;;;;;;;;;;5085760;28;20171;-76
2021/04/19 07:51:23;;;;;;;23.70;19.90;;;;;;;;;;5087571;28;20544;-76
2021/04/19 07:53:48;;;;;;;20.65;17.95;;;;;;;;;;5093308;28;20682;-75
2021/04/19 07:56:18;;;;;;;23.27;18.70;;;;;;;;;;5094254;28;20240;-75
2021/04/19 07:58:44;;;;;;;26.65;18.63;;;;;;;;;;5095271;28;20491;-76
2021/04/19 08:01:11;;;;;;;24.33;19.45;;;;;;;;;;5102942;28;20776;-75
2021/04/19 08:03:43;;;;;;;21.63;18.75;;;;;;;;;;5089020;28;20191;-75
2021/04/19 08:06:18;;;;;;;22.77;18.02;;;;;;;;;;5089028;28;20175;-76
2021/04/19 08:08:44;;;;;;;26.10;20.58;;;;;;;;;;5109508;28;20204;-75
2021/04/19 08:11:11;;;;;;;25.77;19.75;;;;;;;;;;5109442;28;20189;-74
2021/04/19 08:13:37;;;;;;;24.60;17.77;;;;;;;;;;5101976;28;20332;-77
2021/04/19 08:16:17;;;;;;;19.85;17.25;;;;;;;;;;5103897;28;20707;-76
2021/04/19 08:18:43;;;;;;;21.98;18.23;;;;;;;;;;5099319;28;20178;-75
2021/04/19 08:21:10;;;;;;;21.77;18.52;;;;;;;;;;5088988;28;20179;-76
2021/04/19 08:23:40;;;;;;;22.23;17.65;;;;;;;;;;5101143;28;20190;-76
2021/04/19 08:26:06;;;;;;;23.85;18.35;;;;;;;;;;5093076;28;20179;-76
2021/04/19 08:28:42;;;;;;;23.90;17.52;;;;;;;;;;5092671;28;20273;-75
2021/04/19 08:31:08;;;;;;;20.60;17.67;;;;;;;;;;5097691;28;20182;-75
2021/04/19 08:33:35;;;;;;;24.05;18.90;;;;;;;;;;5111498;28;20212;-76
2021/04/19 08:36:01;;;;;;;22.77;18.65;;;;;;;;;;5104934;28;20175;-76
2021/04/19 08:38:29;;;;;;;29.75;23.45;;;;;;;;;;5090946;28;20171;-75
2021/04/19 08:40:55;;;;;;;22.63;18.95;;;;;;;;;;5113315;28;20244;-76
2021/04/19 08:43:25;;;;;;;21.65;18.65;;;;;;;;;;5112680;28;20186;-75
2021/04/19 08:45:52;;;;;;;22.85;19.67;;;;;;;;;;5108817;28;20180;-74
2021/04/19 08:48:18;;;;;;;23.00;19.45;;;;;;;;;;5093446;28;21018;-75
2021/04/19 08:50:46;;;;;;;27.52;21.35;;;;;;;;;;5104252;28;20544;-75
2021/04/19 08:53:13;;;;;;;26.55;21.20;;;;;;;;;;5105007;28;20206;-75
2021/04/19 08:55:41;;;;;;;23.38;19.77;;;;;;;;;;5104196;28;20180;-76
2021/04/19 08:58:11;;;;;;;27.80;20.75;;;;;;;;;;5093336;28;20204;-77
2021/04/19 09:00:39;;;;;;;22.83;19.67;;;;;;;;;;5105847;28;20195;-75
2021/04/19 09:03:05;;;;;;;28.60;20.30;;;;;;;;;;5092268;28;20187;-76
2021/04/19 09:05:32;;;;;;;22.75;18.30;;;;;;;;;;5090617;28;20190;-76
2021/04/19 09:08:05;;;;;;;23.63;20.02;;;;;;;;;;5092909;28;20694;-76
2021/04/19 09:11:07;;;;;;;19.90;17.77;;;;;;;;;;5092031;28;20540;-76
2021/04/19 09:13:43;;;;;;;23.53;18.83;;;;;;;;;;5049569;28;20304;-75
2021/04/19 09:16:21;;;;;;;25.02;19.15;;;;;;;;;;5085853;28;20823;-75
2021/04/19 09:18:55;;;;;;;22.57;18.97;;;;;;;;;;5090235;28;20240;-76
2021/04/19 09:21:34;;;;;;;22.43;20.03;;;;;;;;;;5100474;28;20421;-76
2021/04/19 09:24:00;;;;;;;20.67;17.87;;;;;;;;;;5091803;28;20782;-75
2021/04/19 09:26:45;;;;;;;23.23;18.50;;;;;;;;;;5091593;28;20938;-75
2021/04/19 09:29:11;;;;;;;19.03;16.90;;;;;;;;;;5081185;28;20415;-75
2021/04/19 09:31:56;;;;;;;22.33;18.40;;;;;;;;;;5091811;28;20764;-75
2021/04/19 09:34:40;;;;;;;18.47;16.57;;;;;;;;;;5090419;28;20473;-76
2021/04/19 09:37:07;;;;;;;18.60;16.80;;;;;;;;;;5100711;28;20505;-76
2021/04/19 09:39:50;;;;;;;18.90;16.90;;;;;;;;;;5090916;28;20427;-74
2021/04/19 09:42:17;;;;;;;19.30;17.40;;;;;;;;;;5091322;28;20520;-75
2021/04/19 09:44:53;;;;;;;17.50;15.80;;;;;;;;;;5091182;28;20418;-75
2021/04/19 09:47:38;;;;;;;17.63;15.67;;;;;;;;;;5101911;28;20441;-75
2021/04/19 09:50:04;;;;;;;18.00;16.10;;;;;;;;;;5093328;27;20423;-75
2021/04/19 09:52:30;;;;;;;20.87;18.77;;;;;;;;;;5091196;28;20457;-75
2021/04/19 09:55:02;;;;;;;19.37;17.00;;;;;;;;;;5091009;28;20429;-75
2021/04/19 09:57:28;;;;;;;17.67;15.97;;;;;;;;;;5099488;28;20539;-75
2021/04/19 09:59:54;;;;;;;18.47;16.77;;;;;;;;;;5091535;28;20423;-75
2021/04/19 10:02:20;;;;;;;18.80;17.10;;;;;;;;;;5094279;28;20444;-75
2021/04/19 10:04:47;;;;;;;18.80;17.10;;;;;;;;;;5111622;28;20443;-76
2021/04/19 10:07:15;;;;;;;17.17;15.63;;;;;;;;;;5104818;28;20871;-75
2021/04/19 10:09:44;;;;;;;18.10;16.40;;;;;;;;;;5090796;28;20433;-75
2021/04/19 10:12:13;;;;;;;17.40;15.87;;;;;;;;;;5090830;28;20420;-76
2021/04/19 10:14:40;;;;;;;20.57;18.67;;;;;;;;;;5090352;28;20425;-76
2021/04/19 10:17:17;;;;;;;17.77;16.17;;;;;;;;;;5090395;28;20444;-76
2021/04/19 10:19:43;;;;;;;18.33;16.73;;;;;;;;;;5090705;28;20455;-76
2021/04/19 10:22:10;;;;;;;18.13;16.50;;;;;;;;;;5098411;28;20477;-76
2021/04/19 10:24:57;;;;;;;16.47;15.07;;;;;;;;;;5094896;28;21306;-76
2021/04/19 10:27:30;;;;;;;18.90;17.20;;;;;;;;;;5087539;28;20449;-75
2021/04/19 10:30:08;;;;;;;16.60;15.00;;;;;;;;;;5090733;28;20952;-74
2021/04/19 10:32:34;;;;;;;18.10;16.50;;;;;;;;;;5090751;28;20453;-75
2021/04/19 10:35:00;;;;;;;17.90;16.47;;;;;;;;;;5102159;28;20516;-76
2021/04/19 10:37:26;;;;;;;18.10;16.50;;;;;;;;;;5092192;28;20969;-77
2021/04/19 10:39:52;;;;;;;17.23;15.83;;;;;;;;;;5090805;28;20409;-77
2021/04/19 10:42:22;;;;;;;17.47;16.07;;;;;;;;;;5090425;28;20421;-76
2021/04/19 10:44:48;;;;;;;18.27;16.77;;;;;;;;;;5089308;28;20882;-76
2021/04/19 10:47:25;;;;;;;17.13;15.77;;;;;;;;;;5089860;28;20452;-75
2021/04/19 10:49:51;;;;;;;20.07;18.47;;;;;;;;;;5090505;28;20425;-75
2021/04/19 10:52:17;;;;;;;17.87;16.47;;;;;;;;;;5090419;28;20505;-76
2021/04/19 10:54:44;;;;;;;17.30;15.90;;;;;;;;;;5100759;28;20935;-77
2021/04/19 10:57:20;;;;;;;17.87;16.57;;;;;;;;;;5090185;28;20425;-75
2021/04/19 10:59:48;;;;;;;17.67;16.27;;;;;;;;;;5105586;28;21190;-75
2021/04/19 11:02:14;;;;;;;17.03;15.37;;;;;;;;;;5109277;28;21192;-75
2021/04/19 11:04:40;;;;;;;17.97;16.57;;;;;;;;;;5094872;28;20440;-76
2021/04/19 11:07:31;;;;;;;19.60;18.10;;;;;;;;;;5148040;27;20891;-76
2021/04/19 11:10:16;;;;;;;38.30;34.90;;;;;;;;;;5126667;28;20931;-76
2021/04/19 11:13:02;;;;;;;16.67;15.37;;;;;;;;;;5133953;27;20412;-76
2021/04/19 11:15:29;;;;;;;16.63;15.30;;;;;;;;;;5135742;27;20463;-76
2021/04/19 11:17:55;;;;;;;16.00;14.70;;;;;;;;;;5136238;27;20439;-75
2021/04/19 11:20:25;;;;;;;16.90;15.53;;;;;;;;;;5144619;27;20497;-75
2021/04/19 11:22:52;;;;;;;16.70;15.50;;;;;;;;;;5127191;27;20404;-75
2021/04/19 11:25:26;;;;;;;19.50;18.00;;;;;;;;;;5140543;27;20458;-76
2021/04/19 11:27:53;;;;;;;30.33;27.90;;;;;;;;;;5127875;27;20532;-76
2021/04/19 11:30:24;;;;;;;15.73;14.63;;;;;;;;;;5129635;27;20422;-76
2021/04/19 11:33:09;;;;;;;15.03;13.93;;;;;;;;;;5126966;27;20491;-76
2021/04/19 11:35:37;;;;;;;14.83;13.73;;;;;;;;;;5137697;27;20412;-76
2021/04/19 11:38:04;;;;;;;16.00;14.80;;;;;;;;;;5138872;27;20872;-76
2021/04/19 11:40:31;;;;;;;16.80;15.17;;;;;;;;;;5124850;28;20954;-78
2021/04/19 11:42:57;;;;;;;14.63;13.53;;;;;;;;;;5126652;27;20407;-75
2021/04/19 11:45:24;;;;;;;15.73;13.40;;;;;;;;;;5136543;27;20498;-78
2021/04/19 11:47:50;;;;;;;16.23;14.93;;;;;;;;;;5126885;27;20514;-79
2021/04/19 11:50:16;;;;;;;14.93;13.87;;;;;;;;;;5140790;27;20468;-78
2021/04/19 11:52:46;;;;;;;14.50;13.40;;;;;;;;;;5146383;27;20414;-76
2021/04/19 11:55:13;;;;;;;13.20;12.07;;;;;;;;;;5147638;27;20426;-78
2021/04/19 11:57:40;;;;;;;13.00;12.10;;;;;;;;;;5142678;27;20439;-74
2021/04/19 12:00:11;;;;;;;11.40;10.50;;;;;;;;;;5134903;27;20915;-77
2021/04/19 12:02:37;;;;;;;10.70;9.90;;;;;;;;;;5147149;27;20419;-78
2021/04/19 12:05:07;;;;;;;10.97;10.17;;;;;;;;;;5133068;27;20521;-76
2021/04/19 12:07:33;;;;;;;12.07;11.23;;;;;;;;;;5143240;27;20422;-73
2021/04/19 12:09:59;;;;;;;10.57;9.77;;;;;;;;;;5124166;27;20472;-76
2021/04/19 12:12:25;;;;;;;10.53;9.83;;;;;;;;;;5125925;28;20427;-76
2021/04/19 12:14:51;;;;;;;10.27;9.47;;;;;;;;;;5126010;27;20412;-78
2021/04/19 12:17:18;;;;;;;9.80;9.20;;;;;;;;;;5117377;27;20539;-78
2021/04/19 12:19:44;;;;;;;10.07;9.37;;;;;;;;;;5115985;27;20806;-78
2021/04/19 12:22:10;;;;;;;10.37;9.57;;;;;;;;;;5123916;27;20434;-76
2021/04/19 12:24:36;;;;;;;10.00;9.30;;;;;;;;;;5111960;28;20459;-76
2021/04/19 12:27:02;;;;;;;9.10;8.50;;;;;;;;;;5111918;28;20490;-77
2021/04/19 12:29:28;;;;;;;8.80;8.20;;;;;;;;;;5111981;28;20427;-77
2021/04/19 12:31:54;;;;;;;11.93;11.10;;;;;;;;;;5111218;28;21026;-76
2021/04/19 12:34:20;;;;;;;9.13;8.53;;;;;;;;;;5129252;27;20474;-76
2021/04/19 12:36:46;;;;;;;10.90;9.97;;;;;;;;;;5121913;27;20443;-77
2021/04/19 12:39:12;;;;;;;10.03;9.23;;;;;;;;;;5124072;27;20428;-76
2021/04/19 12:41:39;;;;;;;8.00;7.50;;;;;;;;;;5111946;28;20557;-77
2021/04/19 12:44:05;;;;;;;8.10;7.50;;;;;;;;;;5117598;27;20435;-76
2021/04/19 12:46:31;;;;;;;7.90;7.20;;;;;;;;;;5114396;28;20520;-77
2021/04/19 12:48:57;;;;;;;6.40;6.00;;;;;;;;;;5116365;27;20432;-76
2021/04/19 12:51:24;;;;;;;6.40;5.90;;;;;;;;;;5133639;27;20425;-77
2021/04/19 12:53:50;;;;;;;6.77;6.20;;;;;;;;;;5131792;27;20916;-77
2021/04/19 12:56:16;;;;;;;6.40;5.80;;;;;;;;;;5114564;28;20910;-77
2021/04/19 12:58:42;;;;;;;6.30;5.80;;;;;;;;;;5118358;28;20412;-76
2021/04/19 13:01:08;;;;;;;5.60;5.10;;;;;;;;;;5128802;27;20476;-77
2021/04/19 13:03:35;;;;;;;7.43;6.13;;;;;;;;;;5117140;28;20478;-76
2021/04/19 13:06:01;;;;;;;6.73;6.20;;;;;;;;;;5126218;27;20824;-77
2021/04/19 13:08:28;;;;;;;7.20;6.60;;;;;;;;;;5110749;28;20833;-76
2021/04/19 13:10:54;;;;;;;6.47;5.87;;;;;;;;;;5111801;27;20439;-77
2021/04/19 13:13:20;;;;;;;6.37;5.77;;;;;;;;;;5111433;27;20785;-77
2021/04/19 13:15:46;;;;;;;6.60;6.10;;;;;;;;;;5111990;28;20446;-78
2021/04/19 13:18:12;;;;;;;7.23;6.63;;;;;;;;;;5112113;28;20902;-77
2021/04/19 13:20:38;;;;;;;7.33;6.83;;;;;;;;;;5114251;27;20423;-77
2021/04/19 13:23:05;;;;;;;8.63;7.93;;;;;;;;;;5132899;27;20780;-78
2021/04/19 13:25:31;;;;;;;8.80;8.00;;;;;;;;;;5111282;28;20460;-77
2021/04/19 13:27:57;;;;;;;8.50;7.80;;;;;;;;;;5109903;28;20485;-78
2021/04/19 13:30:24;;;;;;;13.90;11.63;;;;;;;;;;5112964;27;20467;-77
2021/04/19 13:32:51;;;;;;;9.50;8.07;;;;;;;;;;5131823;27;20426;-77
2021/04/19 13:35:17;;;;;;;10.30;9.50;;;;;;;;;;5114755;27;20424;-77
2021/04/19 13:37:44;;;;;;;9.33;8.50;;;;;;;;;;5131247;27;20435;-77
2021/04/19 13:40:11;;;;;;;10.10;9.30;;;;;;;;;;5113993;27;20432;-76
2021/04/19 13:42:37;;;;;;;10.10;9.30;;;;;;;;;;5120629;27;20496;-76
2021/04/19 13:45:07;;;;;;;10.20;9.30;;;;;;;;;;5112450;27;20430;-75
2021/04/19 13:47:33;;;;;;;10.67;9.67;;;;;;;;;;5112108;27;20441;-75
2021/04/19 13:49:59;;;;;;;10.40;9.50;;;;;;;;;;5113220;27;20558;-76
2021/04/19 13:52:26;;;;;;;10.37;9.57;;;;;;;;;;5113508;27;20427;-75
2021/04/19 13:54:52;;;;;;;11.80;10.57;;;;;;;;;;5118187;27;20420;-77
2021/04/19 13:57:18;;;;;;;16.37;14.70;;;;;;;;;;5113267;27;21000;-76
2021/04/19 13:59:44;;;;;;;11.90;10.87;;;;;;;;;;5110561;27;20412;-77
2021/04/19 14:02:10;;;;;;;13.90;12.70;;;;;;;;;;5121585;27;20487;-78
2021/04/19 14:04:36;;;;;;;12.10;11.00;;;;;;;;;;5120869;27;20892;-75
2021/04/19 14:07:03;;;;;;;12.40;11.37;;;;;;;;;;5109944;28;20478;-76
2021/04/19 14:09:28;;;;;;;11.63;10.57;;;;;;;;;;5123921;27;20451;-76
2021/04/19 14:11:55;;;;;;;12.13;11.03;;;;;;;;;;5121363;27;20837;-76
2021/04/19 14:14:21;;;;;;;12.33;11.23;;;;;;;;;;5115354;27;20424;-76
2021/04/19 14:16:47;;;;;;;11.97;10.87;;;;;;;;;;5110001;28;20530;-77
2021/04/19 14:19:13;;;;;;;11.47;10.47;;;;;;;;;;5114660;27;20515;-76
2021/04/19 14:21:40;;;;;;;10.50;9.50;;;;;;;;;;5115936;27;20422;-76
2021/04/19 14:24:07;;;;;;;10.50;9.50;;;;;;;;;;5119098;27;20494;-76
2021/04/19 14:26:34;;;;;;;10.03;9.13;;;;;;;;;;5129453;27;21001;-77